sensor_id;sensor_type;location;lat;lon;timestamp;temperature;humidity
36374;DHT22;22399;51.346;12.372;2022-07-03T00:02:17;19.00;65.80
36374;DHT22;22399;51.346;12.372;2022-07-03T00:07:20;19.00;66.10
36374;DHT22;22399;51.346;12.372;2022-07-03T00:12:24;18.90;66.20
36374;DHT22;22399;51.346;12.372;2022-07-03T00:17:29;18.90;67.10
36374;DHT22;22399;51.346;12.372;2022-07-03T00:22:33;18.80;66.60
36374;DHT22;22399;51.346;12.372;2022-07-03T00:27:40;18.70;66.90
36374;DHT22;22399;51.346;12.372;2022-07-03T00:32:47;18.60;67.80
36374;DHT22;22399;51.346;12.372;2022-07-03T00:37:52;18.50;67.20
36374;DHT22;22399;51.346;12.372;2022-07-03T00:42:56;18.40;67.40
36374;DHT22;22399;51.346;12.372;2022-07-03T00:48:06;18.30;67.80
36374;DHT22;22399;51.346;12.372;2022-07-03T00:53:12;18.30;68.00
36374;DHT22;22399;51.346;12.372;2022-07-03T00:58:17;18.20;68.10
36374;DHT22;22399;51.346;12.372;2022-07-03T01:03:26;18.20;68.40
36374;DHT22;22399;51.346;12.372;2022-07-03T01:08:34;18.10;68.80
36374;DHT22;22399;51.346;12.372;2022-07-03T01:13:41;18.00;69.00
36374;DHT22;22399;51.346;12.372;2022-07-03T01:18:53;18.00;69.20
36374;DHT22;22399;51.346;12.372;2022-07-03T01:24:28;17.90;69.20
36374;DHT22;22399;51.346;12.372;2022-07-03T01:29:51;18.00;69.40
36374;DHT22;22399;51.346;12.372;2022-07-03T01:34:56;17.90;69.60
36374;DHT22;22399;51.346;12.372;2022-07-03T01:40:03;17.90;69.70
36374;DHT22;22399;51.346;12.372;2022-07-03T01:45:10;17.90;69.70
36374;DHT22;22399;51.346;12.372;2022-07-03T01:50:15;17.90;70.00
36374;DHT22;22399;51.346;12.372;2022-07-03T01:55:19;17.90;69.90
36374;DHT22;22399;51.346;12.372;2022-07-03T02:00:24;17.80;69.90
36374;DHT22;22399;51.346;12.372;2022-07-03T02:05:31;17.80;70.20
36374;DHT22;22399;51.346;12.372;2022-07-03T02:10:38;17.80;70.20
36374;DHT22;22399;51.346;12.372;2022-07-03T02:15:45;17.70;70.40
36374;DHT22;22399;51.346;12.372;2022-07-03T02:21:00;17.70;70.50
36374;DHT22;22399;51.346;12.372;2022-07-03T02:26:06;17.60;70.80
36374;DHT22;22399;51.346;12.372;2022-07-03T02:31:16;17.50;70.90
36374;DHT22;22399;51.346;12.372;2022-07-03T02:36:23;17.40;71.20
36374;DHT22;22399;51.346;12.372;2022-07-03T02:41:46;17.30;71.40
36374;DHT22;22399;51.346;12.372;2022-07-03T02:47:00;17.30;71.70
36374;DHT22;22399;51.346;12.372;2022-07-03T02:52:13;17.30;71.80
36374;DHT22;22399;51.346;12.372;2022-07-03T02:57:18;17.20;71.90
36374;DHT22;22399;51.346;12.372;2022-07-03T03:02:52;17.20;71.90
36374;DHT22;22399;51.346;12.372;2022-07-03T03:08:16;17.20;72.40
36374;DHT22;22399;51.346;12.372;2022-07-03T03:13:22;17.10;72.80
36374;DHT22;22399;51.346;12.372;2022-07-03T03:18:30;17.10;72.80
36374;DHT22;22399;51.346;12.372;2022-07-03T03:23:44;17.00;73.00
36374;DHT22;22399;51.346;12.372;2022-07-03T03:28:51;17.00;73.20
36374;DHT22;22399;51.346;12.372;2022-07-03T03:33:59;17.00;73.40
36374;DHT22;22399;51.346;12.372;2022-07-03T03:39:03;17.00;73.60
36374;DHT22;22399;51.346;12.372;2022-07-03T03:44:06;16.90;73.60
36374;DHT22;22399;51.346;12.372;2022-07-03T03:49:11;16.90;73.80
36374;DHT22;22399;51.346;12.372;2022-07-03T03:54:14;16.80;74.00
36374;DHT22;22399;51.346;12.372;2022-07-03T03:59:18;16.80;74.20
36374;DHT22;22399;51.346;12.372;2022-07-03T04:04:22;16.80;74.60
36374;DHT22;22399;51.346;12.372;2022-07-03T04:09:26;16.90;74.60
36374;DHT22;22399;51.346;12.372;2022-07-03T04:14:29;16.90;74.60
36374;DHT22;22399;51.346;12.372;2022-07-03T04:19:34;16.90;74.60
36374;DHT22;22399;51.346;12.372;2022-07-03T04:24:37;17.00;74.90
36374;DHT22;22399;51.346;12.372;2022-07-03T04:29:40;17.00;74.90
36374;DHT22;22399;51.346;12.372;2022-07-03T04:34:45;17.00;75.00
36374;DHT22;22399;51.346;12.372;2022-07-03T04:39:48;17.30;75.00
36374;DHT22;22399;51.346;12.372;2022-07-03T04:44:52;17.50;74.70
36374;DHT22;22399;51.346;12.372;2022-07-03T04:49:56;17.80;74.30
36374;DHT22;22399;51.346;12.372;2022-07-03T04:54:59;18.00;74.20
36374;DHT22;22399;51.346;12.372;2022-07-03T05:00:05;18.30;73.80
36374;DHT22;22399;51.346;12.372;2022-07-03T05:05:10;18.30;73.50
36374;DHT22;22399;51.346;12.372;2022-07-03T05:10:13;18.00;73.80
36374;DHT22;22399;51.346;12.372;2022-07-03T05:15:17;17.80;74.20
36374;DHT22;22399;51.346;12.372;2022-07-03T05:20:21;17.70;74.70
36374;DHT22;22399;51.346;12.372;2022-07-03T05:25:31;17.70;75.00
36374;DHT22;22399;51.346;12.372;2022-07-03T05:30:34;17.80;75.00
36374;DHT22;22399;51.346;12.372;2022-07-03T05:35:39;18.00;75.00
36374;DHT22;22399;51.346;12.372;2022-07-03T05:40:43;18.30;74.90
36374;DHT22;22399;51.346;12.372;2022-07-03T05:45:46;19.20;73.70
36374;DHT22;22399;51.346;12.372;2022-07-03T05:50:51;19.70;72.70
36374;DHT22;22399;51.346;12.372;2022-07-03T05:55:56;20.10;71.70
36374;DHT22;22399;51.346;12.372;2022-07-03T06:00:59;20.40;70.70
36374;DHT22;22399;51.346;12.372;2022-07-03T06:06:04;20.60;69.90
36374;DHT22;22399;51.346;12.372;2022-07-03T06:11:08;20.80;69.00
36374;DHT22;22399;51.346;12.372;2022-07-03T06:16:11;21.00;68.50
36374;DHT22;22399;51.346;12.372;2022-07-03T06:21:16;21.40;68.10
36374;DHT22;22399;51.346;12.372;2022-07-03T06:26:20;22.90;66.60
36374;DHT22;22399;51.346;12.372;2022-07-03T06:31:23;24.10;64.30
36374;DHT22;22399;51.346;12.372;2022-07-03T06:36:28;25.00;62.90
36374;DHT22;22399;51.346;12.372;2022-07-03T06:41:32;25.40;61.70
36374;DHT22;22399;51.346;12.372;2022-07-03T06:46:35;25.60;60.90
36374;DHT22;22399;51.346;12.372;2022-07-03T06:51:39;25.90;61.00
36374;DHT22;22399;51.346;12.372;2022-07-03T06:56:42;26.10;61.00
36374;DHT22;22399;51.346;12.372;2022-07-03T07:01:46;26.50;60.90
36374;DHT22;22399;51.346;12.372;2022-07-03T07:06:50;26.90;60.50
36374;DHT22;22399;51.346;12.372;2022-07-03T07:11:54;27.40;60.80
36374;DHT22;22399;51.346;12.372;2022-07-03T07:16:57;27.60;60.00
36374;DHT22;22399;51.346;12.372;2022-07-03T07:22:02;28.00;59.80
36374;DHT22;22399;51.346;12.372;2022-07-03T07:27:06;28.40;59.30
36374;DHT22;22399;51.346;12.372;2022-07-03T07:32:09;28.60;58.40
36374;DHT22;22399;51.346;12.372;2022-07-03T07:37:14;28.00;58.80
36374;DHT22;22399;51.346;12.372;2022-07-03T07:42:18;28.70;59.20
36374;DHT22;22399;51.346;12.372;2022-07-03T07:47:21;28.70;58.40
36374;DHT22;22399;51.346;12.372;2022-07-03T07:52:26;29.00;58.60
36374;DHT22;22399;51.346;12.372;2022-07-03T07:57:34;29.20;57.90
36374;DHT22;22399;51.346;12.372;2022-07-03T08:02:38;29.30;58.00
36374;DHT22;22399;51.346;12.372;2022-07-03T08:08:01;29.10;57.90
36374;DHT22;22399;51.346;12.372;2022-07-03T08:13:05;29.60;57.60
36374;DHT22;22399;51.346;12.372;2022-07-03T08:18:09;29.80;57.20
36374;DHT22;22399;51.346;12.372;2022-07-03T08:23:14;29.80;56.50
36374;DHT22;22399;51.346;12.372;2022-07-03T08:28:18;29.50;57.00
36374;DHT22;22399;51.346;12.372;2022-07-03T08:33:22;29.60;56.30
36374;DHT22;22399;51.346;12.372;2022-07-03T08:38:30;30.00;56.10
36374;DHT22;22399;51.346;12.372;2022-07-03T08:43:36;30.00;55.80
36374;DHT22;22399;51.346;12.372;2022-07-03T08:48:43;29.80;55.40
36374;DHT22;22399;51.346;12.372;2022-07-03T08:53:48;30.40;55.40
36374;DHT22;22399;51.346;12.372;2022-07-03T08:58:52;30.80;55.00
36374;DHT22;22399;51.346;12.372;2022-07-03T09:03:56;30.90;54.80
36374;DHT22;22399;51.346;12.372;2022-07-03T09:09:03;31.80;54.50
36374;DHT22;22399;51.346;12.372;2022-07-03T09:14:06;31.30;53.40
36374;DHT22;22399;51.346;12.372;2022-07-03T09:19:10;31.30;53.50
36374;DHT22;22399;51.346;12.372;2022-07-03T09:24:15;32.20;52.70
36374;DHT22;22399;51.346;12.372;2022-07-03T09:29:19;32.70;51.50
36374;DHT22;22399;51.346;12.372;2022-07-03T09:34:23;32.60;50.30
36374;DHT22;22399;51.346;12.372;2022-07-03T09:39:30;33.50;50.10
36374;DHT22;22399;51.346;12.372;2022-07-03T09:44:38;32.50;50.20
36374;DHT22;22399;51.346;12.372;2022-07-03T09:49:45;32.40;50.70
36374;DHT22;22399;51.346;12.372;2022-07-03T09:54:50;32.40;49.70
36374;DHT22;22399;51.346;12.372;2022-07-03T10:00:09;31.90;49.90
36374;DHT22;22399;51.346;12.372;2022-07-03T10:05:13;31.60;50.60
36374;DHT22;22399;51.346;12.372;2022-07-03T10:10:19;33.00;49.50
36374;DHT22;22399;51.346;12.372;2022-07-03T10:15:26;34.00;48.10
36374;DHT22;22399;51.346;12.372;2022-07-03T10:20:33;34.30;47.90
36374;DHT22;22399;51.346;12.372;2022-07-03T10:25:40;33.60;47.20
36374;DHT22;22399;51.346;12.372;2022-07-03T10:30:46;32.00;47.50
36374;DHT22;22399;51.346;12.372;2022-07-03T10:35:52;31.90;47.20
36374;DHT22;22399;51.346;12.372;2022-07-03T10:41:01;33.50;46.90
36374;DHT22;22399;51.346;12.372;2022-07-03T10:46:24;34.20;46.00
36374;DHT22;22399;51.346;12.372;2022-07-03T10:51:30;34.40;45.00
36374;DHT22;22399;51.346;12.372;2022-07-03T10:57:05;33.50;45.50
36374;DHT22;22399;51.346;12.372;2022-07-03T11:02:17;32.70;45.50
36374;DHT22;22399;51.346;12.372;2022-07-03T11:07:21;32.10;45.30
36374;DHT22;22399;51.346;12.372;2022-07-03T11:18:18;34.40;44.90
36374;DHT22;22399;51.346;12.372;2022-07-03T11:23:28;33.50;43.80
36374;DHT22;22399;51.346;12.372;2022-07-03T11:28:54;33.30;44.40
36374;DHT22;22399;51.346;12.372;2022-07-03T11:33:59;33.40;43.50
36374;DHT22;22399;51.346;12.372;2022-07-03T11:39:05;34.70;43.30
36374;DHT22;22399;51.346;12.372;2022-07-03T11:44:15;34.90;41.80
36374;DHT22;22399;51.346;12.372;2022-07-03T11:49:21;33.80;43.20
36374;DHT22;22399;51.346;12.372;2022-07-03T11:54:29;34.00;42.70
36374;DHT22;22399;51.346;12.372;2022-07-03T11:59:33;34.70;42.40
36374;DHT22;22399;51.346;12.372;2022-07-03T12:04:38;36.10;41.10
36374;DHT22;22399;51.346;12.372;2022-07-03T12:09:43;37.30;39.80
36374;DHT22;22399;51.346;12.372;2022-07-03T12:14:47;37.20;37.90
36374;DHT22;22399;51.346;12.372;2022-07-03T12:19:54;36.60;38.00
36374;DHT22;22399;51.346;12.372;2022-07-03T12:24:59;36.00;38.20
36374;DHT22;22399;51.346;12.372;2022-07-03T12:30:05;34.40;38.90
36374;DHT22;22399;51.346;12.372;2022-07-03T12:35:10;33.40;39.50
36374;DHT22;22399;51.346;12.372;2022-07-03T12:40:14;34.30;38.60
36374;DHT22;22399;51.346;12.372;2022-07-03T12:45:19;36.70;37.00
36374;DHT22;22399;51.346;12.372;2022-07-03T12:50:24;38.60;35.60
36374;DHT22;22399;51.346;12.372;2022-07-03T12:55:29;39.20;34.40
36374;DHT22;22399;51.346;12.372;2022-07-03T13:00:42;39.40;34.00
36374;DHT22;22399;51.346;12.372;2022-07-03T13:05:48;38.40;34.20
36374;DHT22;22399;51.346;12.372;2022-07-03T13:10:55;39.20;33.90
36374;DHT22;22399;51.346;12.372;2022-07-03T13:15:59;38.00;33.00
36374;DHT22;22399;51.346;12.372;2022-07-03T13:21:04;37.30;33.40
36374;DHT22;22399;51.346;12.372;2022-07-03T13:26:07;37.50;33.00
36374;DHT22;22399;51.346;12.372;2022-07-03T13:31:11;38.50;32.60
36374;DHT22;22399;51.346;12.372;2022-07-03T13:36:16;39.40;31.80
36374;DHT22;22399;51.346;12.372;2022-07-03T13:41:20;37.40;34.00
36374;DHT22;22399;51.346;12.372;2022-07-03T13:46:25;38.60;32.60
36374;DHT22;22399;51.346;12.372;2022-07-03T13:51:30;36.60;35.30
36374;DHT22;22399;51.346;12.372;2022-07-03T13:56:33;35.80;37.00
36374;DHT22;22399;51.346;12.372;2022-07-03T14:01:37;35.50;37.50
36374;DHT22;22399;51.346;12.372;2022-07-03T14:06:42;34.70;37.60
36374;DHT22;22399;51.346;12.372;2022-07-03T14:11:45;34.30;38.00
36374;DHT22;22399;51.346;12.372;2022-07-03T14:16:49;33.90;38.00
36374;DHT22;22399;51.346;12.372;2022-07-03T14:21:55;33.80;38.10
36374;DHT22;22399;51.346;12.372;2022-07-03T14:26:58;33.50;38.00
36374;DHT22;22399;51.346;12.372;2022-07-03T14:32:19;33.10;38.00
36374;DHT22;22399;51.346;12.372;2022-07-03T14:37:36;33.10;38.10
36374;DHT22;22399;51.346;12.372;2022-07-03T14:42:39;32.90;38.00
36374;DHT22;22399;51.346;12.372;2022-07-03T14:47:43;32.70;38.30
36374;DHT22;22399;51.346;12.372;2022-07-03T14:52:48;32.30;38.50
36374;DHT22;22399;51.346;12.372;2022-07-03T14:57:53;32.40;38.50
36374;DHT22;22399;51.346;12.372;2022-07-03T15:03:05;32.60;38.60
36374;DHT22;22399;51.346;12.372;2022-07-03T15:08:19;32.60;38.20
36374;DHT22;22399;51.346;12.372;2022-07-03T15:13:26;32.60;38.10
36374;DHT22;22399;51.346;12.372;2022-07-03T15:18:30;32.80;38.00
36374;DHT22;22399;51.346;12.372;2022-07-03T15:23:34;32.80;38.00
36374;DHT22;22399;51.346;12.372;2022-07-03T15:28:38;32.80;38.10
36374;DHT22;22399;51.346;12.372;2022-07-03T15:33:41;32.70;38.10
36374;DHT22;22399;51.346;12.372;2022-07-03T15:38:53;32.30;38.20
36374;DHT22;22399;51.346;12.372;2022-07-03T15:44:10;32.10;38.60
36374;DHT22;22399;51.346;12.372;2022-07-03T15:49:25;31.70;38.70
36374;DHT22;22399;51.346;12.372;2022-07-03T15:59:59;31.20;39.30
36374;DHT22;22399;51.346;12.372;2022-07-03T16:05:05;31.30;38.90
36374;DHT22;22399;51.346;12.372;2022-07-03T16:10:11;31.20;39.00
36374;DHT22;22399;51.346;12.372;2022-07-03T16:15:15;31.20;39.00
36374;DHT22;22399;51.346;12.372;2022-07-03T16:20:19;31.10;38.80
36374;DHT22;22399;51.346;12.372;2022-07-03T16:25:24;30.90;38.80
36374;DHT22;22399;51.346;12.372;2022-07-03T16:30:29;30.50;39.10
36374;DHT22;22399;51.346;12.372;2022-07-03T16:35:36;30.40;39.20
36374;DHT22;22399;51.346;12.372;2022-07-03T16:40:43;30.20;39.40
36374;DHT22;22399;51.346;12.372;2022-07-03T16:45:49;30.10;39.40
36374;DHT22;22399;51.346;12.372;2022-07-03T16:50:55;30.10;39.50
36374;DHT22;22399;51.346;12.372;2022-07-03T16:56:00;30.30;39.50
36374;DHT22;22399;51.346;12.372;2022-07-03T17:01:09;30.30;39.40
36374;DHT22;22399;51.346;12.372;2022-07-03T17:06:13;30.30;39.30
36374;DHT22;22399;51.346;12.372;2022-07-03T17:11:20;30.20;39.10
36374;DHT22;22399;51.346;12.372;2022-07-03T17:16:27;30.00;39.20
36374;DHT22;22399;51.346;12.372;2022-07-03T17:21:38;29.90;39.40
36374;DHT22;22399;51.346;12.372;2022-07-03T17:26:47;29.60;39.50
36374;DHT22;22399;51.346;12.372;2022-07-03T17:31:53;29.50;39.60
36374;DHT22;22399;51.346;12.372;2022-07-03T17:36:58;29.30;39.80
36374;DHT22;22399;51.346;12.372;2022-07-03T17:42:08;29.20;39.80
36374;DHT22;22399;51.346;12.372;2022-07-03T17:47:15;29.10;39.90
36374;DHT22;22399;51.346;12.372;2022-07-03T17:52:21;29.00;39.90
36374;DHT22;22399;51.346;12.372;2022-07-03T17:57:28;29.00;40.00
36374;DHT22;22399;51.346;12.372;2022-07-03T18:02:41;29.00;39.80
36374;DHT22;22399;51.346;12.372;2022-07-03T18:07:57;28.80;39.70
36374;DHT22;22399;51.346;12.372;2022-07-03T18:13:10;28.60;40.00
36374;DHT22;22399;51.346;12.372;2022-07-03T18:18:17;28.30;40.30
36374;DHT22;22399;51.346;12.372;2022-07-03T18:23:22;28.20;40.50
36374;DHT22;22399;51.346;12.372;2022-07-03T18:28:30;28.10;40.60
36374;DHT22;22399;51.346;12.372;2022-07-03T18:33:33;28.10;40.60
36374;DHT22;22399;51.346;12.372;2022-07-03T18:38:37;28.10;40.70
36374;DHT22;22399;51.346;12.372;2022-07-03T18:43:43;28.00;40.70
36374;DHT22;22399;51.346;12.372;2022-07-03T18:48:46;27.90;40.70
36374;DHT22;22399;51.346;12.372;2022-07-03T18:53:55;27.80;40.70
36374;DHT22;22399;51.346;12.372;2022-07-03T18:59:06;27.70;40.90
36374;DHT22;22399;51.346;12.372;2022-07-03T19:04:27;27.70;41.00
36374;DHT22;22399;51.346;12.372;2022-07-03T19:09:35;27.60;41.20
36374;DHT22;22399;51.346;12.372;2022-07-03T19:14:42;27.50;41.40
36374;DHT22;22399;51.346;12.372;2022-07-03T19:19:45;27.20;41.80
36374;DHT22;22399;51.346;12.372;2022-07-03T19:24:48;27.10;42.00
36374;DHT22;22399;51.346;12.372;2022-07-03T19:29:53;27.10;42.30
36374;DHT22;22399;51.346;12.372;2022-07-03T19:34:56;27.10;42.60
36374;DHT22;22399;51.346;12.372;2022-07-03T19:39:59;27.00;42.70
36374;DHT22;22399;51.346;12.372;2022-07-03T19:45:06;27.00;42.70
36374;DHT22;22399;51.346;12.372;2022-07-03T19:50:10;27.00;42.90
36374;DHT22;22399;51.346;12.372;2022-07-03T19:55:14;27.10;43.00
36374;DHT22;22399;51.346;12.372;2022-07-03T20:00:20;27.10;42.90
36374;DHT22;22399;51.346;12.372;2022-07-03T20:05:28;27.10;43.00
36374;DHT22;22399;51.346;12.372;2022-07-03T20:10:32;27.00;43.40
36374;DHT22;22399;51.346;12.372;2022-07-03T20:15:36;26.70;43.80
36374;DHT22;22399;51.346;12.372;2022-07-03T20:20:51;26.50;44.20
36374;DHT22;22399;51.346;12.372;2022-07-03T20:25:58;26.20;44.60
36374;DHT22;22399;51.346;12.372;2022-07-03T20:31:03;26.00;45.00
36374;DHT22;22399;51.346;12.372;2022-07-03T20:36:07;26.00;45.30
36374;DHT22;22399;51.346;12.372;2022-07-03T20:41:10;25.90;45.50
36374;DHT22;22399;51.346;12.372;2022-07-03T20:46:16;25.80;45.70
36374;DHT22;22399;51.346;12.372;2022-07-03T20:51:20;25.70;46.00
36374;DHT22;22399;51.346;12.372;2022-07-03T20:56:23;25.60;46.30
36374;DHT22;22399;51.346;12.372;2022-07-03T21:01:29;25.40;46.60
36374;DHT22;22399;51.346;12.372;2022-07-03T21:06:32;25.30;47.00
36374;DHT22;22399;51.346;12.372;2022-07-03T21:11:38;25.00;47.50
36374;DHT22;22399;51.346;12.372;2022-07-03T21:16:44;24.60;48.10
36374;DHT22;22399;51.346;12.372;2022-07-03T21:21:49;24.40;48.40
36374;DHT22;22399;51.346;12.372;2022-07-03T21:26:52;24.20;48.90
36374;DHT22;22399;51.346;12.372;2022-07-03T21:31:57;24.00;49.20
36374;DHT22;22399;51.346;12.372;2022-07-03T21:37:01;23.80;49.40
36374;DHT22;22399;51.346;12.372;2022-07-03T21:42:05;23.70;49.70
36374;DHT22;22399;51.346;12.372;2022-07-03T21:47:10;23.60;50.00
36374;DHT22;22399;51.346;12.372;2022-07-03T21:52:13;23.60;50.10
36374;DHT22;22399;51.346;12.372;2022-07-03T21:57:16;23.60;50.20
36374;DHT22;22399;51.346;12.372;2022-07-03T22:02:23;23.50;50.30
36374;DHT22;22399;51.346;12.372;2022-07-03T22:07:27;23.60;50.30
36374;DHT22;22399;51.346;12.372;2022-07-03T22:12:30;23.70;50.20
36374;DHT22;22399;51.346;12.372;2022-07-03T22:17:40;23.70;50.10
36374;DHT22;22399;51.346;12.372;2022-07-03T22:22:45;23.70;50.00
36374;DHT22;22399;51.346;12.372;2022-07-03T22:27:49;23.70;50.20
36374;DHT22;22399;51.346;12.372;2022-07-03T22:32:54;23.70;50.30
36374;DHT22;22399;51.346;12.372;2022-07-03T22:37:57;23.50;50.50
36374;DHT22;22399;51.346;12.372;2022-07-03T22:43:00;23.30;50.90
36374;DHT22;22399;51.346;12.372;2022-07-03T22:48:06;23.20;51.20
36374;DHT22;22399;51.346;12.372;2022-07-03T22:53:09;23.10;51.40
36374;DHT22;22399;51.346;12.372;2022-07-03T22:58:12;23.00;51.70
36374;DHT22;22399;51.346;12.372;2022-07-03T23:03:16;22.90;52.00
36374;DHT22;22399;51.346;12.372;2022-07-03T23:08:20;22.60;52.30
36374;DHT22;22399;51.346;12.372;2022-07-03T23:13:23;22.50;52.80
36374;DHT22;22399;51.346;12.372;2022-07-03T23:18:28;22.30;53.20
36374;DHT22;22399;51.346;12.372;2022-07-03T23:23:31;22.20;53.50
36374;DHT22;22399;51.346;12.372;2022-07-03T23:28:35;22.10;53.90
36374;DHT22;22399;51.346;12.372;2022-07-03T23:33:39;22.00;54.20
36374;DHT22;22399;51.346;12.372;2022-07-03T23:38:43;21.90;54.60
36374;DHT22;22399;51.346;12.372;2022-07-03T23:43:46;21.90;55.00
36374;DHT22;22399;51.346;12.372;2022-07-03T23:48:51;21.70;55.20
36374;DHT22;22399;51.346;12.372;2022-07-03T23:54:11;21.70;55.50
36374;DHT22;22399;51.346;12.372;2022-07-03T23:59:15;21.70;55.90
